source: josm/trunk/data_nodist/btnmeatrack_2016-01-25.nmea @ 9740

Last change on this file since 9740 was 9740, checked in by simon04, 4 years ago

see #12485 - Add unit test for nmea reading

File size: 6.2 KB
Line 
1$GPGGA,050509.200,4659.2842,N,00124.0315,W,1,16,0.7,38.9,M,49.0,M,,0000*78
2$GPRMC,050509.200,A,4659.2842,N,00124.0315,W,000.0,000.0,250116,,,A*74
3$GPGGA,050509.400,4659.2842,N,00124.0315,W,1,16,0.7,38.9,M,49.0,M,,0000*7E
4$GPRMC,050509.400,A,4659.2842,N,00124.0315,W,000.0,000.0,250116,,,A*72
5$GPGGA,050509.600,4659.2842,N,00124.0315,W,1,16,0.7,38.9,M,49.0,M,,0000*7C
6$GPGLL,4659.2842,N,00124.0315,W,050509.600,A,A*46
7$GPGSA,A,3,01,03,08,11,10,14,22,27,32,28,18,,1.2,0.7,0.9*36
8$GLGSA,A,3,82,83,67,66,68,,,,,,,,1.2,0.7,0.9*2D
9$GPRMC,050509.600,A,4659.2842,N,00124.0315,W,000.0,000.0,250116,,,A*70
10$GPVTG,000.0,T,,M,000.0,N,000.0,K,A*0D
11$GPZDA,050509.600,25,01,2016,00,00*5A
12$GPGGA,050509.800,4659.2842,N,00124.0315,W,1,16,0.7,38.9,M,49.0,M,,0000*72
13$GPRMC,050509.800,A,4659.2842,N,00124.0315,W,000.0,000.0,250116,,,A*7E
14$GPGGA,050510.000,4659.2842,N,00124.0315,W,1,16,0.7,38.9,M,49.0,M,,0000*72
15$GPRMC,050510.000,A,4659.2842,N,00124.0315,W,000.0,000.0,250116,,,A*7E
16$GPGGA,050510.200,4659.2842,N,00124.0315,W,1,17,0.7,38.9,M,49.0,M,,0000*71
17$GPRMC,050510.200,A,4659.2842,N,00124.0315,W,000.0,000.0,250116,,,A*7C
18$GPGGA,050510.400,4659.2842,N,00124.0315,W,1,17,0.7,38.9,M,49.0,M,,0000*77
19$GPRMC,050510.400,A,4659.2842,N,00124.0315,W,000.0,000.0,250116,,,A*7A
20$GPGGA,050510.600,4659.2842,N,00124.0315,W,1,17,0.7,38.9,M,49.0,M,,0000*75
21$GPGLL,4659.2842,N,00124.0315,W,050510.600,A,A*4E
22$GPGSA,A,3,01,03,08,11,10,14,22,27,32,28,18,,1.1,0.7,0.9*35
23$GLGSA,A,3,82,83,67,66,68,74,,,,,,,1.1,0.7,0.9*2D
24$GPGSV,3,1,11,08,84,167,51,22,69,107,48,11,51,284,49,27,51,132,50*7D
25$GPGSV,3,2,11,32,40,192,49,10,39,054,45,01,38,269,48,14,21,099,45*7D
26$GPGSV,3,3,11,28,16,324,40,03,09,211,45,18,09,045,40*49
27$GLGSV,2,1,06,83,63,338,51,67,53,060,47,68,48,161,50,82,44,094,50*63
28$GLGSV,2,2,06,74,21,308,43,66,09,025,39*6B
29$GPRMC,050510.600,A,4659.2842,N,00124.0315,W,000.0,000.0,250116,,,A*78
30$GPVTG,000.0,T,,M,000.0,N,000.0,K,A*0D
31$GPZDA,050510.600,25,01,2016,00,00*52
32$GPGGA,050510.800,4659.2842,N,00124.0315,W,1,17,0.7,38.9,M,49.0,M,,0000*7B
33$GPRMC,050510.800,A,4659.2842,N,00124.0315,W,000.0,000.0,250116,,,A*76
34$GPGGA,050511.000,4659.2842,N,00124.0315,W,1,17,0.7,38.9,M,49.0,M,,0000*72
35$GPRMC,050511.000,A,4659.2842,N,00124.0315,W,000.0,000.0,250116,,,A*7F
36$GPGGA,050511.200,4659.2842,N,00124.0315,W,1,17,0.7,38.9,M,49.0,M,,0000*70
37$GPRMC,050511.200,A,4659.2842,N,00124.0315,W,000.0,000.0,250116,,,A*7D
38$GPGGA,050511.400,4659.2842,N,00124.0315,W,1,17,0.7,38.9,M,49.0,M,,0000*76
39$GPRMC,050511.400,A,4659.2842,N,00124.0315,W,000.0,000.0,250116,,,A*7B
40$GPGGA,050511.600,4659.2842,N,00124.0315,W,1,17,0.7,38.9,M,49.0,M,,0000*74
41$GPGLL,4659.2842,N,00124.0315,W,050511.600,A,A*4F
42$GPGSA,A,3,01,03,08,11,10,14,22,27,32,28,18,,1.1,0.7,0.9*35
43$GLGSA,A,3,82,83,67,66,68,74,,,,,,,1.1,0.7,0.9*2D
44$GPRMC,050511.600,A,4659.2842,N,00124.0315,W,000.0,000.0,250116,,,A*79
45$GPVTG,000.0,T,,M,000.0,N,000.0,K,A*0D
46$GPZDA,050511.600,25,01,2016,00,00*53
47$GPGGA,050511.800,4659.2842,N,00124.0315,W,1,17,0.7,38.9,M,49.0,M,,0000*7A
48$GPRMC,050511.800,A,4659.2842,N,00124.0315,W,000.0,000.0,250116,,,A*77
49$GPGGA,050512.000,4659.2842,N,00124.0315,W,1,17,0.7,38.9,M,49.0,M,,0000*71
50$GPRMC,050512.000,A,4659.2842,N,00124.0315,W,000.0,000.0,250116,,,A*7C
51$GPGGA,050512.200,4659.2842,N,00124.0315,W,1,17,0.7,38.9,M,49.0,M,,0000*73
52$GPRMC,050512.200,A,4659.2842,N,00124.0315,W,000.0,000.0,250116,,,A*7E
53$GPGGA,050512.400,4659.2842,N,00124.0315,W,1,17,0.7,38.9,M,49.0,M,,0000*75
54$GPRMC,050512.400,A,4659.2842,N,00124.0315,W,000.0,000.0,250116,,,A*78
55$GPGGA,050512.600,4659.2842,N,00124.0315,W,1,17,0.7,38.9,M,49.0,M,,0000*77
56$GPGLL,4659.2842,N,00124.0315,W,050512.600,A,A*4C
57$GPGSA,A,3,01,03,08,11,10,14,22,27,32,28,18,,1.1,0.7,0.9*35
58$GLGSA,A,3,82,83,67,66,68,74,,,,,,,1.1,0.7,0.9*2D
59$GPRMC,050512.600,A,4659.2842,N,00124.0315,W,000.0,000.0,250116,,,A*7A
60$GPVTG,000.0,T,,M,000.0,N,000.0,K,A*0D
61$GPZDA,050512.600,25,01,2016,00,00*50
62$GPGGA,050512.800,4659.2842,N,00124.0315,W,1,17,0.7,38.9,M,49.0,M,,0000*79
63$GPRMC,050512.800,A,4659.2842,N,00124.0315,W,000.0,000.0,250116,,,A*74
64$GPGGA,050513.000,4659.2842,N,00124.0315,W,1,17,0.7,38.9,M,49.0,M,,0000*70
65$GPRMC,050513.000,A,4659.2842,N,00124.0315,W,000.0,000.0,250116,,,A*7D
66$GPGGA,050513.200,4659.2842,N,00124.0315,W,1,17,0.7,38.9,M,49.0,M,,0000*72
67$GPRMC,050513.200,A,4659.2842,N,00124.0315,W,000.0,000.0,250116,,,A*7F
68$GPGGA,050513.400,4659.2842,N,00124.0315,W,1,17,0.7,38.9,M,49.0,M,,0000*74
69$GPRMC,050513.400,A,4659.2842,N,00124.0315,W,000.0,000.0,250116,,,A*79
70$GPGGA,050513.600,4659.2842,N,00124.0315,W,1,17,0.7,38.9,M,49.0,M,,0000*76
71$GPGLL,4659.2842,N,00124.0315,W,050513.600,A,A*4D
72$GPGSA,A,3,01,03,08,11,10,14,22,27,32,28,18,,1.1,0.7,0.9*35
73$GLGSA,A,3,82,83,67,66,68,74,,,,,,,1.1,0.7,0.9*2D
74$GPGSV,3,1,11,08,84,167,52,22,69,107,48,11,51,284,49,27,51,132,50*7E
75$GPGSV,3,2,11,32,40,192,49,10,39,054,45,01,38,269,48,14,21,099,45*7D
76$GPGSV,3,3,11,28,16,324,40,03,09,211,45,18,09,045,40*49
77$GLGSV,2,1,06,83,63,338,51,67,53,060,46,68,48,161,50,82,44,094,50*62
78$GLGSV,2,2,06,74,21,308,43,66,09,025,40*65
79$GPRMC,050513.600,A,4659.2842,N,00124.0315,W,000.0,000.0,250116,,,A*7B
80$GPVTG,000.0,T,,M,000.0,N,000.0,K,A*0D
81$GPZDA,050513.600,25,01,2016,00,00*51
82$GPGGA,050513.800,4659.2842,N,00124.0315,W,1,17,0.7,38.9,M,49.0,M,,0000*78
83$GPRMC,050513.800,A,4659.2842,N,00124.0315,W,000.0,000.0,250116,,,A*75
84$GPGGA,050514.000,4659.2842,N,00124.0315,W,1,17,0.7,38.9,M,49.0,M,,0000*77
85$GPRMC,050514.000,A,4659.2842,N,00124.0315,W,000.0,000.0,250116,,,A*7A
86$GPGGA,050514.200,4659.2842,N,00124.0315,W,1,17,0.7,38.9,M,49.0,M,,0000*75
87$GPRMC,050514.200,A,4659.2842,N,00124.0315,W,000.0,000.0,250116,,,A*78
88$GPGGA,050514.400,4659.2842,N,00124.0315,W,1,17,0.7,38.9,M,49.0,M,,0000*73
89$GPRMC,050514.400,A,4659.2842,N,00124.0315,W,000.0,000.0,250116,,,A*7E
90$GPGGA,050514.600,4659.2842,N,00124.0315,W,1,17,0.7,38.9,M,49.0,M,,0000*71
91$GPGLL,4659.2842,N,00124.0315,W,050514.600,A,A*4A
92$GPGSA,A,3,01,03,08,11,10,14,22,27,32,28,18,,1.1,0.7,0.9*35
93$GLGSA,A,3,82,83,67,66,68,74,,,,,,,1.1,0.7,0.9*2D
94$GPRMC,050514.600,A,4659.2842,N,00124.0315,W,000.0,000.0,250116,,,A*7C
95$GPVTG,000.0,T,,M,000.0,N,000.0,K,A*0D
96$GPZDA,050514.600,25,01,2016,00,00*56
97$GPGGA,050514.800,4659.2842,N,00124.0315,W,1,17,0.7,38.9,M,49.0,M,,0000*7F
98$GPRMC,050514.800,A,4659.2842,N,00124.0315,W,000.0,000.0,250116,,,A*72
99$GPGGA,050515.000,4659.2842,N,00124.0315,W,1,17,0.7,38.9,M,49.0,M,,0000*76
Note: See TracBrowser for help on using the repository browser.